Time;durP1;ratioP1;P1;durP2;ratioP2;P2;SDS_P1;SDS_P2;PMS_P1;PMS_P2;Temp;Humidity;BMP_temperature;BMP_pressure;BME280_temperature;BME280_humidity;BME280_pressure;Samples;Min_cycle;Max_cycle;Signal;HPM_P1;HPM_P2
2023/04/26 04:01:45;;;;;;;0.50;0.10;;;7.30;99.90;;;;;;5429634;23;20523;-78
2023/04/26 04:04:13;;;;;;;0.60;0.10;;;7.20;99.90;;;;;;4938307;29;20455;-77
2023/04/26 04:06:41;;;;;;;0.50;0.10;;;7.20;99.90;;;;;;4938584;29;20444;-77
2023/04/26 04:09:09;;;;;;;0.60;0.10;;;7.20;99.90;;;;;;4939333;29;20455;-75
2023/04/26 04:11:37;;;;;;;0.50;0.10;;;7.20;99.90;;;;;;4939674;29;20534;-76
2023/04/26 04:14:06;;;;;;;0.50;0.10;;;7.20;99.90;;;;;;4961983;23;20800;-70
2023/04/26 04:16:34;;;;;;;0.50;0.10;;;7.20;99.90;;;;;;4937331;29;20448;-70
2023/04/26 04:19:03;;;;;;;0.53;0.10;;;7.20;99.90;;;;;;4937520;29;20444;-70
2023/04/26 04:21:31;;;;;;;0.60;0.10;;;7.10;99.90;;;;;;4937585;29;20607;-70
2023/04/26 04:23:59;;;;;;;0.50;0.10;;;7.00;99.90;;;;;;4937614;29;20479;-70
2023/04/26 04:26:27;;;;;;;0.60;0.20;;;6.90;99.90;;;;;;4937079;29;20447;-70
2023/04/26 04:28:56;;;;;;;0.50;0.10;;;6.90;99.90;;;;;;4938488;29;20485;-70
2023/04/26 04:31:24;;;;;;;0.50;0.20;;;6.80;99.90;;;;;;4934245;29;20962;-70
2023/04/26 04:33:52;;;;;;;0.60;0.20;;;6.80;99.90;;;;;;4936164;29;20542;-71
2023/04/26 04:36:21;;;;;;;0.50;0.10;;;;;;;;;;4937801;29;20443;-71
2023/04/26 04:38:49;;;;;;;0.50;0.10;;;6.80;99.90;;;;;;4918521;29;20456;-69
2023/04/26 04:41:17;;;;;;;0.50;0.10;;;6.90;99.90;;;;;;4918312;29;20544;-70
2023/04/26 04:43:45;;;;;;;0.67;0.30;;;6.90;99.90;;;;;;4918301;29;20449;-70
2023/04/26 04:46:13;;;;;;;0.50;0.10;;;6.90;99.90;;;;;;4926287;29;20459;-70
2023/04/26 04:48:43;;;;;;;0.50;0.10;;;6.80;99.90;;;;;;4930962;29;20490;-69
2023/04/26 04:51:11;;;;;;;0.50;0.10;;;6.80;99.90;;;;;;4936929;29;20452;-70
2023/04/26 04:53:40;;;;;;;0.50;0.10;;;6.80;99.90;;;;;;4936346;29;21164;-69
2023/04/26 04:56:08;;;;;;;0.50;0.10;;;6.70;99.90;;;;;;4923967;29;20457;-72
2023/04/26 04:58:36;;;;;;;0.50;0.10;;;6.70;99.90;;;;;;4917800;29;20457;-70
2023/04/26 05:01:03;;;;;;;0.60;0.10;;;6.80;99.90;;;;;;4918027;29;20457;-73
2023/04/26 05:03:32;;;;;;;0.50;0.10;;;6.90;99.90;;;;;;4917586;29;20496;-71
2023/04/26 05:06:01;;;;;;;0.50;0.10;;;6.90;99.90;;;;;;4918002;29;20808;-72
2023/04/26 05:08:29;;;;;;;0.50;0.10;;;7.00;99.90;;;;;;4917992;29;20464;-72
2023/04/26 05:10:58;;;;;;;0.60;0.10;;;7.00;99.90;;;;;;4918234;29;20470;-70
2023/04/26 05:13:26;;;;;;;0.50;0.10;;;7.00;99.90;;;;;;4917596;29;20892;-71
2023/04/26 05:15:54;;;;;;;1.80;1.13;;;6.90;99.90;;;;;;4917011;29;20486;-70
2023/04/26 05:18:21;;;;;;;0.50;0.10;;;6.90;99.90;;;;;;4917479;29;20515;-70
2023/04/26 05:20:49;;;;;;;0.50;0.10;;;6.90;99.90;;;;;;4917633;29;20459;-71
2023/04/26 05:23:17;;;;;;;0.60;0.20;;;6.80;99.90;;;;;;4917067;29;20568;-71
2023/04/26 05:25:45;;;;;;;0.50;0.10;;;6.80;99.90;;;;;;4917298;29;20500;-71
2023/04/26 05:28:14;;;;;;;0.50;0.10;;;6.90;99.90;;;;;;4923772;29;20466;-71
2023/04/26 05:30:43;;;;;;;0.50;0.10;;;7.00;99.90;;;;;;4935956;29;20448;-72
2023/04/26 05:33:11;;;;;;;0.80;0.80;;;7.00;99.90;;;;;;4932827;29;20495;-70
2023/04/26 05:35:38;;;;;;;0.50;0.20;;;7.10;99.90;;;;;;4932257;29;20482;-71
2023/04/26 05:38:06;;;;;;;0.50;0.10;;;7.20;99.90;;;;;;4935783;29;20444;-71
2023/04/26 05:40:34;;;;;;;0.50;0.10;;;7.30;99.90;;;;;;4935646;29;20454;-71
2023/04/26 05:43:02;;;;;;;0.50;0.10;;;7.30;99.90;;;;;;4918366;29;20460;-71
2023/04/26 05:45:31;;;;;;;0.53;0.10;;;7.40;99.90;;;;;;4918001;29;21013;-71
2023/04/26 05:47:59;;;;;;;0.50;0.10;;;7.40;99.90;;;;;;4934336;29;20444;-70
2023/04/26 05:50:27;;;;;;;0.50;0.10;;;7.50;99.90;;;;;;4934806;29;20451;-70
2023/04/26 05:52:55;;;;;;;0.50;0.10;;;7.50;99.90;;;;;;4932037;29;21088;-71
2023/04/26 05:55:23;;;;;;;0.50;0.10;;;7.60;99.90;;;;;;4934194;29;20471;-70
2023/04/26 05:57:51;;;;;;;0.50;0.10;;;7.60;99.90;;;;;;4933687;29;20558;-70
2023/04/26 06:00:22;;;;;;;1.37;0.57;;;7.70;99.90;;;;;;4934370;29;20462;-71
2023/04/26 06:02:51;;;;;;;0.50;0.10;;;7.70;99.90;;;;;;4922717;29;21035;-71
2023/04/26 06:05:20;;;;;;;0.50;0.10;;;7.80;99.90;;;;;;4932449;29;20475;-71
2023/04/26 06:07:48;;;;;;;0.50;0.10;;;7.80;99.90;;;;;;4935422;29;20463;-70
2023/04/26 06:10:16;;;;;;;0.53;0.10;;;7.90;99.90;;;;;;4936398;29;20455;-70
2023/04/26 06:12:44;;;;;;;0.57;0.27;;;7.90;99.90;;;;;;4935515;29;20594;-70
2023/04/26 06:15:12;;;;;;;0.50;0.10;;;8.00;99.90;;;;;;4935415;29;20488;-70
2023/04/26 06:17:41;;;;;;;0.60;0.40;;;8.10;99.90;;;;;;4931893;29;20467;-71
2023/04/26 06:20:11;;;;;;;0.50;0.10;;;8.00;99.90;;;;;;4935532;29;21014;-71
2023/04/26 06:22:39;;;;;;;0.60;0.10;;;;;;;;;;4932031;29;20515;-72
2023/04/26 06:25:08;;;;;;;0.57;0.13;;;8.10;99.90;;;;;;4935438;29;20527;-71
2023/04/26 06:27:37;;;;;;;0.50;0.10;;;8.10;99.90;;;;;;4935049;29;20459;-70
2023/04/26 06:30:07;;;;;;;0.50;0.10;;;8.20;99.90;;;;;;4933304;29;20460;-71
2023/04/26 06:32:35;;;;;;;0.50;0.10;;;8.20;99.90;;;;;;4931820;29;20483;-72
2023/04/26 06:35:04;;;;;;;0.50;0.10;;;8.30;99.90;;;;;;4929681;29;20468;-72
2023/04/26 06:37:33;;;;;;;0.50;0.20;;;8.40;99.90;;;;;;4925248;29;20483;-71
2023/04/26 06:40:01;;;;;;;0.50;0.10;;;8.30;99.90;;;;;;4931478;29;20833;-71
2023/04/26 06:42:29;;;;;;;0.63;0.47;;;8.40;99.90;;;;;;4932788;29;20587;-70
2023/04/26 06:44:58;;;;;;;0.50;0.10;;;8.40;99.90;;;;;;4928382;29;20487;-71
2023/04/26 06:47:26;;;;;;;0.50;0.10;;;8.50;99.90;;;;;;4932329;29;20962;-71
2023/04/26 06:49:54;;;;;;;0.60;0.10;;;8.50;99.90;;;;;;4933580;29;20504;-70
2023/04/26 06:52:22;;;;;;;0.50;0.10;;;8.60;99.90;;;;;;4933347;29;20886;-71
2023/04/26 06:54:51;;;;;;;0.50;0.10;;;8.60;99.90;;;;;;4932461;29;20479;-69
2023/04/26 06:57:24;;;;;;;0.50;0.10;;;8.70;99.90;;;;;;4934718;29;20474;-72
2023/04/26 06:59:52;;;;;;;0.50;0.10;;;8.70;99.90;;;;;;4935478;29;20470;-72
2023/04/26 07:02:22;;;;;;;0.50;0.10;;;8.70;99.90;;;;;;4935070;29;20455;-71
2023/04/26 07:04:50;;;;;;;0.50;0.10;;;8.80;99.90;;;;;;4932999;29;20475;-70
2023/04/26 07:07:18;;;;;;;0.50;0.10;;;8.80;99.90;;;;;;4931641;29;20478;-70
2023/04/26 07:09:46;;;;;;;0.50;0.10;;;8.90;99.90;;;;;;4934646;29;20465;-71
2023/04/26 07:12:15;;;;;;;0.50;0.10;;;8.90;99.90;;;;;;4935184;29;20455;-71
2023/04/26 07:14:43;;;;;;;0.50;0.10;;;8.90;99.90;;;;;;4933799;29;20491;-71
2023/04/26 07:17:11;;;;;;;0.60;0.10;;;9.00;97.50;;;;;;4935022;29;20460;-70
2023/04/26 07:19:39;;;;;;;0.50;0.10;;;9.00;97.20;;;;;;4935240;29;20918;-72
2023/04/26 07:22:07;;;;;;;0.90;0.50;;;;;;;;;;4934923;29;20456;-71
2023/04/26 07:24:35;;;;;;;0.50;0.10;;;9.10;94.60;;;;;;4935419;29;20482;-70
2023/04/26 07:27:04;;;;;;;0.50;0.10;;;;;;;;;;4934992;29;20817;-71
2023/04/26 07:29:33;;;;;;;0.60;0.10;;;9.20;94.00;;;;;;4934945;29;20451;-73
2023/04/26 07:32:01;;;;;;;0.53;0.10;;;9.10;93.30;;;;;;4935020;29;20456;-71
2023/04/26 07:34:29;;;;;;;0.60;0.10;;;9.20;94.10;;;;;;4922179;29;20490;-72
2023/04/26 07:36:56;;;;;;;0.60;0.10;;;9.30;94.00;;;;;;4915880;29;20488;-72
2023/04/26 07:39:24;;;;;;;0.50;0.10;;;9.30;94.30;;;;;;4916395;29;20456;-71
2023/04/26 07:41:52;;;;;;;0.50;0.10;;;9.40;94.80;;;;;;4916356;29;20464;-70
2023/04/26 07:44:21;;;;;;;0.50;0.10;;;9.50;95.60;;;;;;4915716;29;20464;-71
2023/04/26 07:46:50;;;;;;;0.60;0.10;;;9.60;95.00;;;;;;4916158;29;20453;-72
2023/04/26 07:49:19;;;;;;;0.60;0.10;;;;;;;;;;4916901;29;20452;-72
2023/04/26 07:51:50;;;;;;;0.50;0.10;;;9.60;94.50;;;;;;4919046;29;20474;-71
2023/04/26 07:54:18;;;;;;;0.60;0.10;;;9.60;94.50;;;;;;4932238;29;20495;-72
2023/04/26 07:56:46;;;;;;;0.60;0.10;;;;;;;;;;4928829;29;20464;-71
2023/04/26 07:59:14;;;;;;;0.60;0.10;;;9.70;95.00;;;;;;4934890;29;20523;-72
2023/04/26 08:01:42;;;;;;;0.60;0.10;;;;;;;;;;4935211;29;20499;-71
2023/04/26 08:04:12;;;;;;;0.50;0.10;;;9.80;95.50;;;;;;4938373;29;20468;-71
2023/04/26 08:06:43;;;;;;;0.60;0.10;;;9.90;95.20;;;;;;4937892;29;20838;-72
2023/04/26 08:09:11;;;;;;;0.60;0.10;;;10.00;94.20;;;;;;4939814;29;20470;-72
2023/04/26 08:11:40;;;;;;;0.60;0.10;;;9.90;94.00;;;;;;4940432;29;20474;-72
2023/04/26 08:14:08;;;;;;;0.60;0.13;;;10.00;93.60;;;;;;4937925;29;20567;-72
2023/04/26 08:16:36;;;;;;;0.60;0.10;;;10.00;93.10;;;;;;4940205;29;20448;-72
2023/04/26 08:19:05;;;;;;;0.60;0.10;;;;;;;;;;4941228;29;20447;-71
2023/04/26 08:21:37;;;;;;;0.60;0.20;;;10.10;92.80;;;;;;4939237;29;20454;-72
2023/04/26 08:24:06;;;;;;;1.70;0.87;;;10.00;92.30;;;;;;4939019;29;20468;-72
2023/04/26 08:26:34;;;;;;;0.60;0.10;;;10.00;92.30;;;;;;4939937;29;20534;-73
2023/04/26 08:29:02;;;;;;;0.60;0.10;;;10.00;95.40;;;;;;4939431;29;20451;-71
2023/04/26 08:31:30;;;;;;;0.60;0.10;;;10.20;95.80;;;;;;4939514;29;20484;-71
2023/04/26 08:33:58;;;;;;;0.60;0.10;;;10.30;93.60;;;;;;4938873;29;20582;-71
2023/04/26 08:36:26;;;;;;;0.60;0.10;;;10.20;92.90;;;;;;4938930;29;20452;-71
2023/04/26 08:38:56;;;;;;;0.60;0.10;;;;;;;;;;4939624;29;20449;-71
2023/04/26 08:41:25;;;;;;;0.60;0.10;;;10.30;93.00;;;;;;4938791;29;20947;-71
2023/04/26 08:43:57;;;;;;;1.27;0.30;;;10.30;88.00;;;;;;4939425;29;20452;-72
2023/04/26 08:46:28;;;;;;;0.60;0.10;;;10.10;89.10;;;;;;4940030;29;20463;-71
2023/04/26 08:49:11;;;;;;;0.60;0.10;;;10.10;90.30;;;;;;4939581;29;20487;-71
2023/04/26 08:51:40;;;;;;;0.60;0.10;;;10.10;91.20;;;;;;4938189;29;20507;-71
2023/04/26 08:54:11;;;;;;;0.60;0.10;;;10.20;92.10;;;;;;4943783;29;20932;-71
2023/04/26 08:56:42;;;;;;;0.60;0.10;;;10.20;92.90;;;;;;4949320;28;20460;-71
2023/04/26 08:59:11;;;;;;;0.60;0.20;;;;;;;;;;4939254;29;20494;-71
2023/04/26 09:01:43;;;;;;;0.60;0.10;;;10.60;93.00;;;;;;4938916;29;20507;-72
2023/04/26 09:04:12;;;;;;;0.60;0.10;;;10.70;92.80;;;;;;4938165;29;20552;-72
2023/04/26 09:06:41;;;;;;;0.60;0.10;;;10.70;93.10;;;;;;4939681;29;20442;-72
2023/04/26 09:09:13;;;;;;;0.60;0.10;;;10.90;92.00;;;;;;4939650;29;20487;-71
2023/04/26 09:12:01;;;;;;;0.60;0.10;;;10.90;92.50;;;;;;4938862;29;20967;-72
2023/04/26 09:14:30;;;;;;;0.60;0.10;;;;;;;;;;4937518;29;20578;-72
2023/04/26 09:16:58;;;;;;;0.60;0.10;;;11.00;91.90;;;;;;4939131;29;20784;-72
2023/04/26 09:19:36;;;;;;;0.60;0.10;;;11.10;92.00;;;;;;4939095;29;20449;-73
2023/04/26 09:22:05;;;;;;;0.60;0.10;;;11.10;90.70;;;;;;4938073;29;20919;-72
2023/04/26 09:24:49;;;;;;;0.60;0.10;;;10.90;91.40;;;;;;4938122;29;20516;-72
2023/04/26 09:27:17;;;;;;;0.60;0.10;;;10.80;91.40;;;;;;4937382;29;20451;-72
2023/04/26 09:29:59;;;;;;;0.60;0.20;;;10.90;91.90;;;;;;4938609;29;20444;-72
2023/04/26 09:32:28;;;;;;;0.60;0.10;;;11.00;92.80;;;;;;4938201;29;20448;-73
2023/04/26 09:34:55;;;;;;;0.60;0.20;;;11.20;93.00;;;;;;4925813;29;20475;-71
2023/04/26 09:37:23;;;;;;;0.60;0.10;;;11.30;93.10;;;;;;4934475;29;20468;-71
2023/04/26 09:39:52;;;;;;;0.60;0.30;;;11.50;89.40;;;;;;4927886;29;20467;-72
2023/04/26 09:42:20;;;;;;;0.70;0.53;;;11.40;87.30;;;;;;4937166;29;20463;-71
2023/04/26 09:44:48;;;;;;;0.60;0.10;;;11.60;88.80;;;;;;4934395;29;20469;-72
2023/04/26 09:47:16;;;;;;;0.60;0.10;;;11.60;87.60;;;;;;4936523;29;20455;-71
2023/04/26 09:49:49;;;;;;;2.37;2.17;;;11.60;86.40;;;;;;4935696;29;20493;-72
2023/04/26 09:52:17;;;;;;;0.60;0.10;;;11.70;85.90;;;;;;4937932;29;20447;-72
2023/04/26 09:54:46;;;;;;;0.60;0.10;;;11.80;87.30;;;;;;4935918;29;20519;-72
2023/04/26 09:57:18;;;;;;;0.60;0.10;;;12.00;87.70;;;;;;4937935;29;20445;-71
2023/04/26 09:59:47;;;;;;;0.60;0.10;;;12.00;88.50;;;;;;4936590;29;20454;-72
2023/04/26 10:02:19;;;;;;;0.60;0.10;;;12.10;84.40;;;;;;4936990;29;20532;-72
2023/04/26 10:04:48;;;;;;;0.60;0.10;;;12.10;77.80;;;;;;4936112;29;20462;-71
2023/04/26 10:07:18;;;;;;;0.60;0.10;;;12.00;79.50;;;;;;4936280;29;20449;-72
2023/04/26 10:09:46;;;;;;;0.60;0.10;;;;;;;;;;4935726;29;20980;-71
2023/04/26 10:12:16;;;;;;;0.60;0.10;;;12.00;81.50;;;;;;4936026;29;20458;-71
2023/04/26 10:14:46;;;;;;;0.60;0.10;;;12.00;79.90;;;;;;4925127;29;20494;-71
2023/04/26 10:17:14;;;;;;;0.60;0.20;;;11.90;77.90;;;;;;4930997;29;20458;-71
2023/04/26 10:19:44;;;;;;;0.60;0.10;;;11.80;80.50;;;;;;4927649;29;20544;-72
2023/04/26 10:22:17;;;;;;;0.60;0.10;;;11.90;82.80;;;;;;4934923;29;20452;-70
2023/04/26 10:24:45;;;;;;;0.60;0.10;;;11.90;80.90;;;;;;4931239;29;20475;-72
2023/04/26 10:27:12;;;;;;;0.70;0.30;;;11.90;80.30;;;;;;4941884;29;20447;-71
2023/04/26 10:30:09;;;;;;;0.83;0.30;;;11.80;79.50;;;;;;4942602;29;20472;-72
2023/04/26 10:33:16;;;;;;;0.60;0.10;;;11.50;78.40;;;;;;4940947;29;20449;-71
2023/04/26 10:36:10;;;;;;;0.80;0.50;;;11.50;80.70;;;;;;4917867;29;20540;-72
2023/04/26 10:38:40;;;;;;;0.60;0.10;;;11.60;84.50;;;;;;4919784;29;20457;-72
2023/04/26 10:41:37;;;;;;;0.60;0.10;;;11.80;77.00;;;;;;4917939;29;20461;-73
2023/04/26 10:44:45;;;;;;;0.60;0.10;;;11.80;74.30;;;;;;4917563;29;20474;-72
2023/04/26 10:47:25;;;;;;;0.60;0.20;;;11.80;72.70;;;;;;4913577;29;20983;-71
2023/04/26 10:50:01;;;;;;;0.60;0.10;;;11.80;76.30;;;;;;4928312;29;20888;-71
2023/04/26 10:52:32;;;;;;;0.60;0.10;;;11.90;73.00;;;;;;4935606;29;20447;-71
2023/04/26 10:55:01;;;;;;;0.60;0.17;;;11.80;71.00;;;;;;4935656;29;20502;-72
2023/04/26 10:57:53;;;;;;;0.60;0.10;;;11.90;70.10;;;;;;4935917;29;20845;-71
2023/04/26 11:00:31;;;;;;;0.60;0.10;;;11.90;70.20;;;;;;4935831;29;21025;-72
2023/04/26 11:03:05;;;;;;;0.60;0.10;;;12.10;74.50;;;;;;4934712;29;20429;-72
2023/04/26 11:05:54;;;;;;;0.60;0.40;;;12.10;74.70;;;;;;4935389;29;20498;-72
2023/04/26 11:08:27;;;;;;;0.60;0.10;;;12.20;74.60;;;;;;4935533;29;20916;-72
2023/04/26 11:11:07;;;;;;;0.60;0.10;;;12.30;71.40;;;;;;4935416;29;20466;-72
2023/04/26 11:13:36;;;;;;;0.60;0.10;;;12.40;71.10;;;;;;4935309;29;20445;-73
2023/04/26 11:16:06;;;;;;;0.60;0.10;;;12.60;71.10;;;;;;4935545;29;20541;-73
2023/04/26 11:18:37;;;;;;;0.60;0.10;;;12.70;68.40;;;;;;4935655;29;20456;-72
2023/04/26 11:21:06;;;;;;;0.60;0.10;;;12.80;68.60;;;;;;4935733;29;20465;-72
2023/04/26 11:23:35;;;;;;;0.60;0.10;;;12.90;67.20;;;;;;4934825;29;20450;-72
2023/04/26 11:26:05;;;;;;;1.40;1.30;;;13.00;61.50;;;;;;4935214;29;20450;-72
2023/04/26 11:28:33;;;;;;;0.60;0.10;;;12.90;59.20;;;;;;4935482;29;20968;-72
2023/04/26 11:31:02;;;;;;;0.60;0.10;;;13.00;61.30;;;;;;4935111;29;20455;-72
2023/04/26 11:33:32;;;;;;;0.60;0.10;;;13.20;62.50;;;;;;4930194;29;20535;-73
2023/04/26 11:36:02;;;;;;;0.60;0.30;;;13.30;59.70;;;;;;4916061;29;20484;-72
2023/04/26 11:38:30;;;;;;;0.60;0.10;;;13.40;60.00;;;;;;4919123;29;20453;-73
2023/04/26 11:41:00;;;;;;;0.60;0.20;;;13.50;60.10;;;;;;4920700;29;20452;-72
2023/04/26 11:43:35;;;;;;;0.60;0.10;;;13.70;60.60;;;;;;4921185;29;20451;-72
2023/04/26 11:46:03;;;;;;;0.60;0.20;;;13.80;58.50;;;;;;4919854;29;20876;-73
2023/04/26 11:48:32;;;;;;;0.60;0.10;;;13.80;58.50;;;;;;4935720;29;20445;-72
2023/04/26 11:51:02;;;;;;;0.60;0.10;;;14.00;62.40;;;;;;4935646;29;20953;-73
2023/04/26 11:53:37;;;;;;;0.60;0.10;;;14.00;63.50;;;;;;4938323;29;20461;-72
2023/04/26 11:56:13;;;;;;;0.60;0.10;;;14.10;68.90;;;;;;4937752;29;20508;-69
2023/04/26 11:58:44;;;;;;;1.90;1.50;;;13.80;59.50;;;;;;4938519;29;20451;-72
2023/04/26 12:01:19;;;;;;;0.60;0.20;;;13.50;54.60;;;;;;4937898;29;20540;-73
2023/04/26 12:03:51;;;;;;;0.60;0.10;;;13.40;67.10;;;;;;4935568;29;20557;-71
2023/04/26 12:06:21;;;;;;;0.60;0.10;;;13.50;67.40;;;;;;4932168;29;20453;-72
2023/04/26 12:08:50;;;;;;;1.87;0.57;;;13.60;69.30;;;;;;4932678;29;20463;-71
2023/04/26 12:11:18;;;;;;;0.60;0.10;;;13.50;62.90;;;;;;4938226;29;20473;-72
2023/04/26 12:13:46;;;;;;;0.70;0.20;;;13.30;63.20;;;;;;4937561;29;20451;-74
2023/04/26 12:16:15;;;;;;;0.60;0.10;;;13.40;64.40;;;;;;4937697;29;21096;-73
2023/04/26 12:18:53;;;;;;;0.60;0.27;;;13.30;62.00;;;;;;4938470;29;20438;-72
2023/04/26 12:21:23;;;;;;;0.60;0.10;;;13.30;62.50;;;;;;4938430;29;20450;-71
2023/04/26 12:23:52;;;;;;;1.00;0.20;;;13.30;62.90;;;;;;4937355;29;20552;-72
2023/04/26 12:26:19;;;;;;;0.60;0.10;;;13.40;64.60;;;;;;4936597;29;20443;-71
2023/04/26 12:28:47;;;;;;;0.60;0.10;;;13.60;63.50;;;;;;4937792;29;20872;-71
2023/04/26 12:31:15;;;;;;;0.60;0.10;;;13.70;64.80;;;;;;4937190;29;20459;-71
2023/04/26 12:33:43;;;;;;;0.60;0.10;;;13.70;63.80;;;;;;4937298;29;20506;-72
2023/04/26 12:36:12;;;;;;;0.60;0.10;;;13.80;63.90;;;;;;4938018;29;20490;-72
2023/04/26 12:38:42;;;;;;;0.60;0.10;;;14.00;60.50;;;;;;4937648;29;20503;-73
2023/04/26 12:41:10;;;;;;;0.60;0.20;;;14.00;59.80;;;;;;4937764;29;20443;-72
2023/04/26 12:43:41;;;;;;;0.60;0.20;;;;;;;;;;4937097;29;20452;-72
2023/04/26 12:46:16;;;;;;;0.60;0.10;;;;;;;;;;4937640;29;20507;-72
2023/04/26 12:48:44;;;;;;;0.60;0.10;;;13.50;53.50;;;;;;4937262;29;20931;-71
2023/04/26 12:51:12;;;;;;;0.60;0.10;;;13.50;57.50;;;;;;4937212;29;20451;-71
2023/04/26 12:53:40;;;;;;;0.60;0.10;;;13.50;61.20;;;;;;4936796;29;20515;-71
2023/04/26 12:56:23;;;;;;;0.60;0.10;;;;;;;;;;4937020;29;20570;-72
2023/04/26 12:59:00;;;;;;;0.60;0.10;;;;;;;;;;4936803;29;21037;-73
2023/04/26 13:01:32;;;;;;;0.60;0.10;;;;;;;;;;4937603;28;20462;-72
2023/04/26 13:04:04;;;;;;;0.60;0.10;;;;;;;;;;4936497;29;21033;-72
2023/04/26 13:06:33;;;;;;;0.60;0.10;;;;;;;;;;4936682;29;20455;-72
2023/04/26 13:09:01;;;;;;;0.60;0.10;;;14.30;58.00;;;;;;4936680;29;20450;-72
2023/04/26 13:11:31;;;;;;;0.60;0.10;;;14.40;59.10;;;;;;4936561;29;20462;-72
2023/04/26 13:13:59;;;;;;;0.60;0.10;;;14.60;56.60;;;;;;4936309;29;20483;-73
2023/04/26 13:16:27;;;;;;;0.60;0.10;;;14.80;50.80;;;;;;4936919;29;20476;-72
2023/04/26 13:18:55;;;;;;;0.60;0.10;;;14.80;50.30;;;;;;4936845;29;20482;-73
2023/04/26 13:21:23;;;;;;;0.60;0.10;;;14.80;51.80;;;;;;4936490;29;20542;-73
2023/04/26 13:23:51;;;;;;;1.00;0.20;;;14.80;53.40;;;;;;4936236;29;20447;-72
2023/04/26 13:26:19;;;;;;;0.60;0.10;;;14.80;55.20;;;;;;4936572;29;20799;-72
2023/04/26 13:28:48;;;;;;;0.60;0.10;;;14.90;54.50;;;;;;4933497;29;20835;-72
2023/04/26 13:31:20;;;;;;;0.70;0.67;;;;;;;;;;4936392;29;20486;-71
2023/04/26 13:33:51;;;;;;;0.70;0.20;;;15.10;50.90;;;;;;4928535;29;20448;-72
2023/04/26 13:36:19;;;;;;;0.60;0.10;;;;;;;;;;4936373;29;20459;-72
2023/04/26 13:38:47;;;;;;;0.60;0.10;;;15.10;44.80;;;;;;4929030;29;20467;-72
2023/04/26 13:41:15;;;;;;;0.60;0.10;;;15.00;38.10;;;;;;4936776;29;20898;-73
2023/04/26 13:43:43;;;;;;;0.60;0.10;;;14.80;39.90;;;;;;4936556;29;20453;-73
2023/04/26 13:46:21;;;;;;;0.60;0.20;;;;;;;;;;4936818;29;20451;-73
2023/04/26 13:48:50;;;;;;;0.60;0.10;;;;;;;;;;4936830;29;20460;-72
2023/04/26 13:51:29;;;;;;;0.60;0.10;;;;;;;;;;4936219;29;20980;-71
2023/04/26 13:53:59;;;;;;;0.60;0.17;;;;;;;;;;4935971;29;20481;-73
2023/04/26 13:56:28;;;;;;;0.60;0.10;;;;;;;;;;4936123;29;20806;-73
2023/04/26 13:58:57;;;;;;;1.53;0.97;;;;;;;;;;4936191;29;20451;-73
2023/04/26 14:01:26;;;;;;;0.60;0.10;;;;;;;;;;4935539;29;20484;-74
2023/04/26 14:04:00;;;;;;;0.80;0.20;;;14.40;41.80;;;;;;4935579;29;20508;-74
2023/04/26 14:06:33;;;;;;;0.60;0.10;;;;;;;;;;4935336;29;20464;-72
2023/04/26 14:09:04;;;;;;;0.60;0.20;;;;;;;;;;4936369;29;20570;-72
2023/04/26 14:11:35;;;;;;;0.60;0.10;;;;;;;;;;4936434;29;20854;-72
2023/04/26 14:14:04;;;;;;;9.07;3.40;;;;;;;;;;4935695;29;20480;-72
2023/04/26 14:16:35;;;;;;;0.60;0.20;;;14.70;43.00;;;;;;4935788;29;20970;-72
2023/04/26 14:19:14;;;;;;;0.90;0.20;;;;;;;;;;4934313;29;20471;-72
2023/04/26 14:21:44;;;;;;;0.60;0.10;;;;;;;;;;4935433;29;20494;-72
2023/04/26 14:24:18;;;;;;;0.60;0.10;;;15.10;47.10;;;;;;4935364;29;20529;-72
2023/04/26 14:26:49;;;;;;;0.60;0.20;;;;;;;;;;4935833;29;20458;-71
2023/04/26 14:29:18;;;;;;;0.60;0.10;;;;;;;;;;4935701;29;20462;-71
2023/04/26 14:31:49;;;;;;;0.60;0.10;;;;;;;;;;4935889;29;20845;-72
2023/04/26 14:34:22;;;;;;;0.60;0.10;;;;;;;;;;4935320;29;20565;-73
2023/04/26 14:36:53;;;;;;;0.60;0.10;;;;;;;;;;4935622;29;20572;-72
2023/04/26 14:39:21;;;;;;;0.60;0.10;;;15.30;48.70;;;;;;4935376;29;20991;-74
2023/04/26 14:41:54;;;;;;;0.60;0.10;;;;;;;;;;4935257;29;21262;-72
2023/04/26 14:44:25;;;;;;;0.60;0.20;;;;;;;;;;4935366;29;21008;-73
2023/04/26 14:46:54;;;;;;;0.60;0.10;;;15.40;52.60;;;;;;4935806;29;20448;-72
2023/04/26 14:49:22;;;;;;;0.60;0.10;;;;;;;;;;4935583;29;20454;-72
2023/04/26 14:51:51;;;;;;;0.60;0.10;;;;;;;;;;4935749;29;20459;-71
2023/04/26 14:54:32;;;;;;;0.60;0.20;;;;;;;;;;4935283;29;20474;-72
2023/04/26 14:57:04;;;;;;;0.60;0.10;;;;;;;;;;4935502;29;20464;-73
2023/04/26 14:59:37;;;;;;;2.93;1.13;;;;;;;;;;4935545;29;20477;-73
2023/04/26 15:02:10;;;;;;;0.60;0.20;;;;;;;;;;4935789;29;20890;-73
2023/04/26 15:04:46;;;;;;;0.60;0.20;;;;;;;;;;4936292;29;20483;-73
2023/04/26 15:07:19;;;;;;;0.60;0.10;;;;;;;;;;4936508;29;20468;-73
2023/04/26 15:10:01;;;;;;;0.60;0.10;;;;;;;;;;4935663;29;20519;-73
2023/04/26 15:12:30;;;;;;;0.60;0.10;;;;;;;;;;4937643;29;20455;-73
2023/04/26 15:14:58;;;;;;;0.60;0.10;;;15.40;47.70;;;;;;4939037;28;20481;-76
2023/04/26 15:17:32;;;;;;;0.60;0.10;;;;;;;;;;4940759;29;20489;-73
2023/04/26 15:20:01;;;;;;;5.30;1.80;;;;;;;;;;4941688;29;20458;-72
2023/04/26 15:22:30;;;;;;;0.60;0.20;;;15.80;49.80;;;;;;4939720;29;20957;-71
2023/04/26 15:24:58;;;;;;;0.60;0.20;;;16.00;49.30;;;;;;4940849;29;20488;-72
2023/04/26 15:27:25;;;;;;;0.60;0.10;;;16.10;47.90;;;;;;4943438;29;20455;-73
2023/04/26 15:29:53;;;;;;;0.60;0.10;;;16.10;44.60;;;;;;4924735;29;20543;-72
2023/04/26 15:32:21;;;;;;;0.60;0.20;;;16.00;46.70;;;;;;4927576;29;20965;-74
2023/04/26 15:34:50;;;;;;;0.60;0.10;;;16.10;48.30;;;;;;4930299;29;20463;-72
2023/04/26 15:37:18;;;;;;;0.60;0.10;;;16.10;47.60;;;;;;4926365;29;20454;-71
2023/04/26 15:39:47;;;;;;;0.60;0.10;;;16.10;51.20;;;;;;4925443;29;20779;-73
2023/04/26 15:42:14;;;;;;;0.60;0.10;;;16.10;48.60;;;;;;4925511;29;20458;-73
2023/04/26 15:44:42;;;;;;;0.60;0.20;;;15.70;45.40;;;;;;4924804;29;20475;-71
2023/04/26 15:47:10;;;;;;;0.60;0.10;;;15.50;45.50;;;;;;4925479;29;20512;-71
2023/04/26 15:49:38;;;;;;;0.60;0.10;;;15.50;45.50;;;;;;4939520;29;20461;-73
2023/04/26 15:52:08;;;;;;;0.97;0.67;;;15.70;44.10;;;;;;4944394;29;20504;-73
2023/04/26 15:54:36;;;;;;;0.60;0.10;;;;;;;;;;4942635;29;20464;-72
2023/04/26 15:57:04;;;;;;;0.60;0.10;;;16.00;49.40;;;;;;4942665;29;20448;-73
2023/04/26 15:59:32;;;;;;;0.60;0.10;;;16.30;49.20;;;;;;4939820;29;20508;-72
2023/04/26 16:02:00;;;;;;;0.60;0.10;;;16.30;48.50;;;;;;4940076;29;20952;-72
2023/04/26 16:04:28;;;;;;;0.60;0.10;;;16.40;48.90;;;;;;4933279;29;20488;-72
2023/04/26 16:06:57;;;;;;;0.60;0.10;;;;;;;;;;4940225;29;20445;-73
2023/04/26 16:09:26;;;;;;;0.60;0.10;;;16.10;48.90;;;;;;4939202;29;20533;-72
2023/04/26 16:11:54;;;;;;;0.60;0.23;;;16.00;49.00;;;;;;4937853;29;20477;-72
2023/04/26 16:14:22;;;;;;;0.60;0.20;;;15.80;47.80;;;;;;4939398;29;20511;-72
2023/04/26 16:16:50;;;;;;;0.70;0.50;;;15.60;46.30;;;;;;4939118;29;20447;-71
2023/04/26 16:19:18;;;;;;;0.60;0.10;;;15.30;46.70;;;;;;4931729;29;20551;-72
2023/04/26 16:21:46;;;;;;;0.60;0.10;;;15.10;47.20;;;;;;4935187;29;20477;-73
2023/04/26 16:24:16;;;;;;;0.60;0.10;;;15.20;49.50;;;;;;4933174;29;20551;-71
2023/04/26 16:26:46;;;;;;;0.60;0.30;;;;;;;;;;4937286;29;20538;-72
2023/04/26 16:29:14;;;;;;;0.60;0.10;;;15.30;51.70;;;;;;4934447;29;20445;-72
2023/04/26 16:31:42;;;;;;;0.60;0.20;;;15.50;52.80;;;;;;4937850;29;20448;-72
2023/04/26 16:34:10;;;;;;;0.60;0.10;;;15.80;51.30;;;;;;4928080;29;20569;-71
2023/04/26 16:36:38;;;;;;;0.60;0.10;;;16.20;52.00;;;;;;4919307;29;20509;-71
2023/04/26 16:39:07;;;;;;;0.60;0.10;;;16.50;49.50;;;;;;4918795;29;21132;-71
2023/04/26 16:41:35;;;;;;;1.27;0.97;;;16.50;45.30;;;;;;4930064;29;20463;-72
2023/04/26 16:44:04;;;;;;;0.60;0.10;;;16.40;46.40;;;;;;4932854;29;20482;-70
2023/04/26 16:46:32;;;;;;;0.60;0.20;;;16.20;46.00;;;;;;4937308;29;20507;-71
2023/04/26 16:49:00;;;;;;;0.70;0.50;;;16.00;45.70;;;;;;4934069;29;20466;-71
2023/04/26 16:51:27;;;;;;;0.60;0.10;;;15.80;45.10;;;;;;4936716;29;20458;-71
2023/04/26 16:53:55;;;;;;;0.90;0.20;;;15.80;46.30;;;;;;4934150;29;20470;-71
2023/04/26 16:56:23;;;;;;;0.60;0.20;;;15.90;46.90;;;;;;4929550;29;20506;-72
2023/04/26 16:58:52;;;;;;;0.60;0.10;;;;;;;;;;4936571;29;20547;-73
2023/04/26 17:01:21;;;;;;;0.60;0.10;;;16.30;49.50;;;;;;4937183;29;20454;-72
2023/04/26 17:03:50;;;;;;;0.70;0.20;;;16.40;48.20;;;;;;4937361;29;20461;-73
2023/04/26 17:06:18;;;;;;;0.60;0.20;;;16.50;47.70;;;;;;4936841;29;20458;-74
2023/04/26 17:08:46;;;;;;;0.80;0.20;;;16.40;47.70;;;;;;4932009;29;20542;-73
2023/04/26 17:11:15;;;;;;;2.60;2.50;;;16.30;46.00;;;;;;4927009;29;20845;-73
2023/04/26 17:13:43;;;;;;;1.33;1.23;;;16.10;43.80;;;;;;4931119;29;20466;-72
2023/04/26 17:16:11;;;;;;;0.60;0.10;;;15.90;45.20;;;;;;4934265;29;20566;-72
2023/04/26 17:18:40;;;;;;;0.60;0.10;;;15.80;45.70;;;;;;4936130;29;20493;-72
2023/04/26 17:21:08;;;;;;;0.60;0.10;;;15.70;47.20;;;;;;4937681;29;20463;-72
2023/04/26 17:23:37;;;;;;;0.60;0.20;;;;;;;;;;4936470;29;20869;-73